sensor_id;sensor_type;location;lat;lon;timestamp;pressure;altitude;pressure_sealevel;temperature;humidity
43217;BME280;60511;42.686;23.300;2023-05-10T00:01:05;94941.59;;;23.63;32.84
43217;BME280;60511;42.686;23.300;2023-05-10T00:03:06;94945.53;;;23.66;32.58
43217;BME280;60511;42.686;23.300;2023-05-10T00:05:07;94935.31;;;23.59;32.54
43217;BME280;60511;42.686;23.300;2023-05-10T00:07:07;94933.75;;;23.58;32.83
43217;BME280;60511;42.686;23.300;2023-05-10T00:09:08;94909.41;;;23.42;33.01
43217;BME280;60511;42.686;23.300;2023-05-10T00:11:08;94932.38;;;23.64;32.64
43217;BME280;60511;42.686;23.300;2023-05-10T00:13:08;94929.13;;;23.59;33.20
43217;BME280;60511;42.686;23.300;2023-05-10T00:15:10;94932.25;;;23.61;32.53
43217;BME280;60511;42.686;23.300;2023-05-10T00:17:10;94916.66;;;23.54;32.75
43217;BME280;60511;42.686;23.300;2023-05-10T00:19:11;94921.78;;;23.59;32.91
43217;BME280;60511;42.686;23.300;2023-05-10T00:21:11;94921.78;;;23.59;33.29
43217;BME280;60511;42.686;23.300;2023-05-10T00:23:12;94929.22;;;23.62;33.08
43217;BME280;60511;42.686;23.300;2023-05-10T00:25:12;94916.81;;;23.61;32.64
43217;BME280;60511;42.686;23.300;2023-05-10T00:27:12;94892.13;;;23.47;32.72
43217;BME280;60511;42.686;23.300;2023-05-10T00:29:13;94916.38;;;23.59;32.24
43217;BME280;60511;42.686;23.300;2023-05-10T00:31:13;94932.91;;;23.70;32.41
43217;BME280;60511;42.686;23.300;2023-05-10T00:33:14;94910.66;;;23.61;32.18
43217;BME280;60511;42.686;23.300;2023-05-10T00:35:15;94927.06;;;23.68;32.17
43217;BME280;60511;42.686;23.300;2023-05-10T00:37:16;94918.59;;;23.70;32.13
43217;BME280;60511;42.686;23.300;2023-05-10T00:39:16;94813.03;;;23.02;32.64
43217;BME280;60511;42.686;23.300;2023-05-10T00:41:17;94899.06;;;23.60;31.97
43217;BME280;60511;42.686;23.300;2023-05-10T00:43:17;94904.91;;;23.62;31.99
43217;BME280;60511;42.686;23.300;2023-05-10T00:45:17;94860.06;;;23.30;32.61
43217;BME280;60511;42.686;23.300;2023-05-10T00:47:18;94916.59;;;23.66;32.76
43217;BME280;60511;42.686;23.300;2023-05-10T00:49:19;94856.81;;;23.24;32.50
43217;BME280;60511;42.686;23.300;2023-05-10T00:51:20;94911.44;;;23.61;32.45
43217;BME280;60511;42.686;23.300;2023-05-10T00:53:21;94916.38;;;23.59;32.93
43217;BME280;60511;42.686;23.300;2023-05-10T00:55:21;94881.94;;;23.40;32.55
43217;BME280;60511;42.686;23.300;2023-05-10T00:57:22;94883.25;;;23.46;32.73
43217;BME280;60511;42.686;23.300;2023-05-10T00:59:23;94887.97;;;23.50;32.61
43217;BME280;60511;42.686;23.300;2023-05-10T01:01:24;94909.88;;;23.60;32.65
43217;BME280;60511;42.686;23.300;2023-05-10T01:03:25;94909.50;;;23.62;32.57
43217;BME280;60511;42.686;23.300;2023-05-10T01:05:25;94910.31;;;23.62;32.80
43217;BME280;60511;42.686;23.300;2023-05-10T01:07:27;94911.31;;;23.58;32.88
43217;BME280;60511;42.686;23.300;2023-05-10T01:09:28;94909.75;;;23.57;33.03
43217;BME280;60511;42.686;23.300;2023-05-10T01:11:28;94917.09;;;23.56;33.23
43217;BME280;60511;42.686;23.300;2023-05-10T01:13:34;94914.56;;;23.63;32.76
43217;BME280;60511;42.686;23.300;2023-05-10T01:15:36;94884.31;;;23.42;32.87
43217;BME280;60511;42.686;23.300;2023-05-10T01:17:38;94908.28;;;23.59;33.12
43217;BME280;60511;42.686;23.300;2023-05-10T01:19:39;94901.91;;;23.52;34.21
43217;BME280;60511;42.686;23.300;2023-05-10T01:21:52;94891.69;;;23.45;33.49
43217;BME280;60511;42.686;23.300;2023-05-10T01:34:06;94886.13;;;23.54;32.70
43217;BME280;60511;42.686;23.300;2023-05-10T01:36:15;94889.13;;;23.64;33.74
43217;BME280;60511;42.686;23.300;2023-05-10T01:40:40;94878.41;;;23.52;32.71
43217;BME280;60511;42.686;23.300;2023-05-10T01:42:49;94883.53;;;23.57;32.56
43217;BME280;60511;42.686;23.300;2023-05-10T01:47:11;94874.53;;;23.53;33.30
43217;BME280;60511;42.686;23.300;2023-05-10T01:49:20;94873.88;;;23.56;32.56
43217;BME280;60511;42.686;23.300;2023-05-10T01:51:23;94837.22;;;23.27;32.59
43217;BME280;60511;42.686;23.300;2023-05-10T01:53:26;94873.78;;;23.53;32.54
43217;BME280;60511;42.686;23.300;2023-05-10T01:55:30;94878.84;;;23.54;32.77
43217;BME280;60511;42.686;23.300;2023-05-10T01:57:37;94881.16;;;23.56;32.61
43217;BME280;60511;42.686;23.300;2023-05-10T01:59:40;94885.78;;;23.55;32.67
43217;BME280;60511;42.686;23.300;2023-05-10T02:01:44;94866.94;;;23.43;32.81
43217;BME280;60511;42.686;23.300;2023-05-10T02:03:46;94883.34;;;23.50;32.97
43217;BME280;60511;42.686;23.300;2023-05-10T02:05:48;94865.84;;;23.44;32.55
43217;BME280;60511;42.686;23.300;2023-05-10T02:07:52;94878.63;;;23.47;32.52
43217;BME280;60511;42.686;23.300;2023-05-10T02:09:53;94858.13;;;23.30;32.64
43217;BME280;60511;42.686;23.300;2023-05-10T02:11:55;94881.44;;;23.51;32.61
43217;BME280;60511;42.686;23.300;2023-05-10T02:13:59;94883.69;;;23.49;33.00
43217;BME280;60511;42.686;23.300;2023-05-10T02:16:01;94818.97;;;23.08;33.00
43217;BME280;60511;42.686;23.300;2023-05-10T02:18:03;94884.22;;;23.54;33.02
43217;BME280;60511;42.686;23.300;2023-05-10T02:20:06;94881.16;;;23.56;33.27
43217;BME280;60511;42.686;23.300;2023-05-10T02:22:08;94849.53;;;23.40;33.21
43217;BME280;60511;42.686;23.300;2023-05-10T02:24:10;94861.44;;;23.39;33.09
43217;BME280;60511;42.686;23.300;2023-05-10T02:26:13;94875.31;;;23.54;33.40
43217;BME280;60511;42.686;23.300;2023-05-10T02:28:16;94874.72;;;23.44;33.00
43217;BME280;60511;42.686;23.300;2023-05-10T02:30:18;94871.25;;;23.44;32.37
43217;BME280;60511;42.686;23.300;2023-05-10T02:32:20;94879.59;;;23.55;32.64
43217;BME280;60511;42.686;23.300;2023-05-10T02:34:23;94884.97;;;23.39;32.83
43217;BME280;60511;42.686;23.300;2023-05-10T02:36:24;94883.59;;;23.45;32.92
43217;BME280;60511;42.686;23.300;2023-05-10T02:38:27;94875.50;;;23.45;32.59
43217;BME280;60511;42.686;23.300;2023-05-10T02:40:28;94867.56;;;23.36;32.91
43217;BME280;60511;42.686;23.300;2023-05-10T02:42:33;94882.81;;;23.44;32.72
43217;BME280;60511;42.686;23.300;2023-05-10T02:44:36;94857.38;;;23.30;32.66
43217;BME280;60511;42.686;23.300;2023-05-10T02:46:37;94871.81;;;23.37;32.02
43217;BME280;60511;42.686;23.300;2023-05-10T02:48:38;94889.34;;;23.43;32.38
43217;BME280;60511;42.686;23.300;2023-05-10T02:50:39;94881.34;;;23.47;31.85
43217;BME280;60511;42.686;23.300;2023-05-10T02:52:46;94866.28;;;23.46;32.43
43217;BME280;60511;42.686;23.300;2023-05-10T02:54:50;94849.34;;;23.33;32.07
43217;BME280;60511;42.686;23.300;2023-05-10T02:56:56;94859.19;;;23.41;32.45
43217;BME280;60511;42.686;23.300;2023-05-10T02:58:57;94783.47;;;22.94;32.54
43217;BME280;60511;42.686;23.300;2023-05-10T03:00:58;94878.91;;;23.58;32.15
43217;BME280;60511;42.686;23.300;2023-05-10T03:02:58;94868.16;;;23.45;31.89
43217;BME280;60511;42.686;23.300;2023-05-10T03:04:58;94885.13;;;23.58;32.17
43217;BME280;60511;42.686;23.300;2023-05-10T03:06:59;94848.03;;;23.43;31.92
43217;BME280;60511;42.686;23.300;2023-05-10T03:09:00;94834.06;;;23.25;31.92
43217;BME280;60511;42.686;23.300;2023-05-10T03:11:13;94887.81;;;23.58;32.00
43217;BME280;60511;42.686;23.300;2023-05-10T03:14:07;94859.19;;;23.41;31.97
43217;BME280;60511;42.686;23.300;2023-05-10T03:16:15;94878.84;;;23.54;32.01
43217;BME280;60511;42.686;23.300;2023-05-10T03:18:28;94890.06;;;23.56;32.01
43217;BME280;60511;42.686;23.300;2023-05-10T03:20:59;94881.09;;;23.52;31.20
43217;BME280;60511;42.686;23.300;2023-05-10T03:23:04;94834.69;;;23.18;31.37
43217;BME280;60511;42.686;23.300;2023-05-10T03:25:06;94863.53;;;23.30;31.06
43217;BME280;60511;42.686;23.300;2023-05-10T03:27:08;94850.88;;;23.18;31.58
43217;BME280;60511;42.686;23.300;2023-05-10T03:29:10;94894.75;;;23.43;31.59
43217;BME280;60511;42.686;23.300;2023-05-10T03:31:11;94893.28;;;23.46;31.02
43217;BME280;60511;42.686;23.300;2023-05-10T03:33:12;94869.63;;;23.27;31.20
43217;BME280;60511;42.686;23.300;2023-05-10T03:35:14;94883.94;;;23.43;31.64
43217;BME280;60511;42.686;23.300;2023-05-10T03:37:14;94897.53;;;23.47;31.30
43217;BME280;60511;42.686;23.300;2023-05-10T03:39:15;94748.41;;;22.50;31.32
43217;BME280;60511;42.686;23.300;2023-05-10T03:41:15;94887.00;;;23.42;31.36
43217;BME280;60511;42.686;23.300;2023-05-10T03:43:15;94872.41;;;23.31;31.29
43217;BME280;60511;42.686;23.300;2023-05-10T03:45:16;94895.19;;;23.45;31.93
43217;BME280;60511;42.686;23.300;2023-05-10T03:47:16;94902.50;;;23.45;31.25
43217;BME280;60511;42.686;23.300;2023-05-10T03:49:17;94903.03;;;23.51;31.26
43217;BME280;60511;42.686;23.300;2023-05-10T03:51:17;94901.13;;;23.51;31.40
43217;BME280;60511;42.686;23.300;2023-05-10T03:53:17;94904.59;;;23.52;30.97
43217;BME280;60511;42.686;23.300;2023-05-10T03:55:18;94895.78;;;23.39;31.04
43217;BME280;60511;42.686;23.300;2023-05-10T03:57:18;94899.63;;;23.38;31.38
43217;BME280;60511;42.686;23.300;2023-05-10T03:59:18;94875.81;;;23.27;30.84
43217;BME280;60511;42.686;23.300;2023-05-10T04:01:19;94892.19;;;23.35;31.20
43217;BME280;60511;42.686;23.300;2023-05-10T04:03:19;94908.69;;;23.45;31.13
43217;BME280;60511;42.686;23.300;2023-05-10T04:05:20;94916.78;;;23.45;31.24
43217;BME280;60511;42.686;23.300;2023-05-10T04:07:20;94918.03;;;23.48;30.82
43217;BME280;60511;42.686;23.300;2023-05-10T04:09:21;94914.78;;;23.42;31.21
43217;BME280;60511;42.686;23.300;2023-05-10T04:11:21;94898.31;;;23.32;30.99
43217;BME280;60511;42.686;23.300;2023-05-10T04:13:22;94886.25;;;23.29;31.21
43217;BME280;60511;42.686;23.300;2023-05-10T04:15:22;94925.44;;;23.51;31.17
43217;BME280;60511;42.686;23.300;2023-05-10T04:17:23;94916.91;;;23.49;31.15
43217;BME280;60511;42.686;23.300;2023-05-10T04:19:23;94921.84;;;23.47;31.06
43217;BME280;60511;42.686;23.300;2023-05-10T04:21:24;94904.22;;;23.37;31.20
43217;BME280;60511;42.686;23.300;2023-05-10T04:23:24;94918.03;;;23.48;30.86
43217;BME280;60511;42.686;23.300;2023-05-10T04:25:25;94923.19;;;23.53;30.84
43217;BME280;60511;42.686;23.300;2023-05-10T04:27:25;94926.59;;;23.50;31.79
43217;BME280;60511;42.686;23.300;2023-05-10T04:29:25;94929.03;;;23.55;31.51
43217;BME280;60511;42.686;23.300;2023-05-10T04:31:26;94911.22;;;23.38;31.06
43217;BME280;60511;42.686;23.300;2023-05-10T04:33:29;94903.00;;;23.35;31.08
43217;BME280;60511;42.686;23.300;2023-05-10T04:35:29;94897.59;;;23.35;31.03
43217;BME280;60511;42.686;23.300;2023-05-10T04:37:30;94845.13;;;22.92;30.78
43217;BME280;60511;42.686;23.300;2023-05-10T04:39:30;94891.59;;;23.25;30.92
43217;BME280;60511;42.686;23.300;2023-05-10T04:41:31;94932.00;;;23.50;30.83
43217;BME280;60511;42.686;23.300;2023-05-10T04:43:31;94923.78;;;23.46;30.60
43217;BME280;60511;42.686;23.300;2023-05-10T04:45:32;94920.75;;;23.48;30.68
43217;BME280;60511;42.686;23.300;2023-05-10T04:47:32;94900.13;;;23.27;31.14
43217;BME280;60511;42.686;23.300;2023-05-10T04:49:32;94916.13;;;23.49;30.78
43217;BME280;60511;42.686;23.300;2023-05-10T04:51:33;94920.81;;;23.52;30.81
43217;BME280;60511;42.686;23.300;2023-05-10T04:53:33;94919.16;;;23.47;31.14
43217;BME280;60511;42.686;23.300;2023-05-10T04:55:33;94927.69;;;23.49;31.20
43217;BME280;60511;42.686;23.300;2023-05-10T04:57:34;94925.00;;;23.49;30.80
43217;BME280;60511;42.686;23.300;2023-05-10T04:59:36;94923.44;;;23.48;30.96
43217;BME280;60511;42.686;23.300;2023-05-10T05:01:37;94902.03;;;23.27;30.81
43217;BME280;60511;42.686;23.300;2023-05-10T05:03:37;94909.91;;;23.32;30.95
43217;BME280;60511;42.686;23.300;2023-05-10T05:05:37;94857.25;;;22.98;30.87
43217;BME280;60511;42.686;23.300;2023-05-10T05:07:38;94933.44;;;23.47;30.58
43217;BME280;60511;42.686;23.300;2023-05-10T05:09:38;94877.34;;;23.13;30.85
43217;BME280;60511;42.686;23.300;2023-05-10T05:11:39;94908.75;;;23.33;30.65
43217;BME280;60511;42.686;23.300;2023-05-10T05:13:40;94927.41;;;23.38;30.73
43217;BME280;60511;42.686;23.300;2023-05-10T05:15:40;94913.72;;;23.31;30.94
43217;BME280;60511;42.686;23.300;2023-05-10T05:17:41;94935.69;;;23.45;30.80
43217;BME280;60511;42.686;23.300;2023-05-10T05:19:41;94923.56;;;23.39;30.96
43217;BME280;60511;42.686;23.300;2023-05-10T05:21:42;94916.66;;;23.26;30.92
43217;BME280;60511;42.686;23.300;2023-05-10T05:23:42;94938.84;;;23.47;31.05
43217;BME280;60511;42.686;23.300;2023-05-10T05:25:43;94937.63;;;23.45;30.76
43217;BME280;60511;42.686;23.300;2023-05-10T05:27:43;94925.31;;;23.32;30.88
43217;BME280;60511;42.686;23.300;2023-05-10T05:29:43;94939.44;;;23.41;30.90
43217;BME280;60511;42.686;23.300;2023-05-10T05:31:44;94941.97;;;23.50;31.26
43217;BME280;60511;42.686;23.300;2023-05-10T05:33:44;94948.97;;;23.51;31.36
43217;BME280;60511;42.686;23.300;2023-05-10T05:35:45;94931.44;;;23.44;30.77
43217;BME280;60511;42.686;23.300;2023-05-10T05:37:51;94924.81;;;23.42;31.01
43217;BME280;60511;42.686;23.300;2023-05-10T05:39:52;94876.72;;;23.03;30.84
43217;BME280;60511;42.686;23.300;2023-05-10T05:41:52;94951.69;;;23.51;30.67
43217;BME280;60511;42.686;23.300;2023-05-10T05:43:52;94935.19;;;23.40;30.69
43217;BME280;60511;42.686;23.300;2023-05-10T05:45:53;94930.63;;;23.28;30.45
43217;BME280;60511;42.686;23.300;2023-05-10T05:47:53;94835.91;;;22.64;30.50
43217;BME280;60511;42.686;23.300;2023-05-10T05:49:54;94955.06;;;23.47;30.33
43217;BME280;60511;42.686;23.300;2023-05-10T05:51:59;94965.84;;;23.47;30.35
43217;BME280;60511;42.686;23.300;2023-05-10T05:54:00;94963.09;;;23.44;30.20
43217;BME280;60511;42.686;23.300;2023-05-10T05:56:01;94931.28;;;23.25;30.54
43217;BME280;60511;42.686;23.300;2023-05-10T05:58:01;94856.56;;;22.73;30.30
43217;BME280;60511;42.686;23.300;2023-05-10T06:00:02;94959.50;;;23.40;30.52
43217;BME280;60511;42.686;23.300;2023-05-10T06:02:04;94942.53;;;23.27;30.35
43217;BME280;60511;42.686;23.300;2023-05-10T06:04:05;94963.41;;;23.42;30.33
43217;BME280;60511;42.686;23.300;2023-05-10T06:06:05;94925.44;;;23.23;30.34
43217;BME280;60511;42.686;23.300;2023-05-10T06:08:06;94893.25;;;23.02;30.45
43217;BME280;60511;42.686;23.300;2023-05-10T06:10:07;94922.22;;;23.17;30.38
43217;BME280;60511;42.686;23.300;2023-05-10T06:12:08;94953.44;;;23.31;30.41
43217;BME280;60511;42.686;23.300;2023-05-10T06:14:08;94931.44;;;23.16;30.44
43217;BME280;60511;42.686;23.300;2023-05-10T06:16:10;94837.16;;;22.55;30.31
43217;BME280;60511;42.686;23.300;2023-05-10T06:18:10;94869.28;;;22.72;30.50
43217;BME280;60511;42.686;23.300;2023-05-10T06:20:11;94864.31;;;22.74;30.59
43217;BME280;60511;42.686;23.300;2023-05-10T06:22:12;94916.75;;;23.01;30.28
43217;BME280;60511;42.686;23.300;2023-05-10T06:24:12;94954.59;;;23.30;30.44
43217;BME280;60511;42.686;23.300;2023-05-10T06:26:12;94798.91;;;22.24;30.33
43217;BME280;60511;42.686;23.300;2023-05-10T06:28:13;94945.72;;;23.17;30.22
43217;BME280;60511;42.686;23.300;2023-05-10T06:30:14;94955.59;;;23.25;30.44
43217;BME280;60511;42.686;23.300;2023-05-10T06:32:15;94961.88;;;23.29;30.35
43217;BME280;60511;42.686;23.300;2023-05-10T06:34:15;94877.00;;;22.74;30.35
43217;BME280;60511;42.686;23.300;2023-05-10T06:36:16;94902.69;;;22.96;30.52
43217;BME280;60511;42.686;23.300;2023-05-10T06:38:16;94789.44;;;22.18;30.42
43217;BME280;60511;42.686;23.300;2023-05-10T06:42:49;94907.09;;;22.88;32.01
43217;BME280;60511;42.686;23.300;2023-05-10T06:44:49;94905.72;;;22.94;33.28
43217;BME280;60511;42.686;23.300;2023-05-10T06:46:50;94975.78;;;23.43;33.20
43217;BME280;60511;42.686;23.300;2023-05-10T06:48:52;94943.34;;;23.27;33.13
43217;BME280;60511;42.686;23.300;2023-05-10T06:50:52;94959.72;;;23.35;33.32
43217;BME280;60511;42.686;23.300;2023-05-10T06:52:52;94960.16;;;23.37;32.68
43217;BME280;60511;42.686;23.300;2023-05-10T06:54:53;94974.91;;;23.39;32.55
43217;BME280;60511;42.686;23.300;2023-05-10T06:56:53;94943.84;;;23.17;32.53
43217;BME280;60511;42.686;23.300;2023-05-10T06:58:54;94973.38;;;23.26;32.29
43217;BME280;60511;42.686;23.300;2023-05-10T07:00:54;94870.75;;;22.57;32.51
43217;BME280;60511;42.686;23.300;2023-05-10T07:02:55;94953.81;;;23.17;32.59
43217;BME280;60511;42.686;23.300;2023-05-10T07:04:56;94968.66;;;23.23;32.23
43217;BME280;60511;42.686;23.300;2023-05-10T07:06:57;94960.03;;;23.17;32.13
43217;BME280;60511;42.686;23.300;2023-05-10T07:08:59;94980.22;;;23.36;32.17
43217;BME280;60511;42.686;23.300;2023-05-10T07:11:04;94986.63;;;23.31;32.17
43217;BME280;60511;42.686;23.300;2023-05-10T07:13:06;94965.50;;;23.21;32.29
43217;BME280;60511;42.686;23.300;2023-05-10T07:15:07;94969.25;;;23.16;32.30
43217;BME280;60511;42.686;23.300;2023-05-10T07:17:07;94978.34;;;23.24;32.27
43217;BME280;60511;42.686;23.300;2023-05-10T07:19:08;94953.53;;;23.06;32.02
43217;BME280;60511;42.686;23.300;2023-05-10T07:21:09;94988.81;;;23.25;31.86
43217;BME280;60511;42.686;23.300;2023-05-10T07:23:09;94981.03;;;23.24;32.04
43217;BME280;60511;42.686;23.300;2023-05-10T07:25:10;94977.56;;;23.23;31.64
43217;BME280;60511;42.686;23.300;2023-05-10T07:27:10;94978.22;;;23.20;31.91
43217;BME280;60511;42.686;23.300;2023-05-10T07:29:11;94984.41;;;23.21;31.76
43217;BME280;60511;42.686;23.300;2023-05-10T07:31:12;94974.91;;;23.11;31.88
43217;BME280;60511;42.686;23.300;2023-05-10T07:33:13;94995.19;;;23.33;31.62
43217;BME280;60511;42.686;23.300;2023-05-10T07:35:14;94932.19;;;22.89;31.47
43217;BME280;60511;42.686;23.300;2023-05-10T07:37:14;94988.59;;;23.18;31.66
43217;BME280;60511;42.686;23.300;2023-05-10T07:39:15;94993.19;;;23.30;31.56
43217;BME280;60511;42.686;23.300;2023-05-10T07:41:15;94998.13;;;23.28;31.44
43217;BME280;60511;42.686;23.300;2023-05-10T07:43:16;94993.78;;;23.23;31.11
43217;BME280;60511;42.686;23.300;2023-05-10T07:45:16;94972.88;;;23.08;31.53
43217;BME280;60511;42.686;23.300;2023-05-10T07:47:17;94989.81;;;23.21;31.26
43217;BME280;60511;42.686;23.300;2023-05-10T07:49:17;95002.50;;;23.33;31.18
43217;BME280;60511;42.686;23.300;2023-05-10T07:51:18;94987.38;;;23.16;31.14
43217;BME280;60511;42.686;23.300;2023-05-10T07:53:19;94971.50;;;23.14;31.14
43217;BME280;60511;42.686;23.300;2023-05-10T07:55:20;94980.97;;;23.08;31.30
43217;BME280;60511;42.686;23.300;2023-05-10T07:57:21;94992.78;;;23.16;31.28
43217;BME280;60511;42.686;23.300;2023-05-10T07:59:21;95006.13;;;23.24;31.35
43217;BME280;60511;42.686;23.300;2023-05-10T08:01:22;95011.97;;;23.26;31.25
43217;BME280;60511;42.686;23.300;2023-05-10T08:03:23;94990.84;;;23.16;31.09
43217;BME280;60511;42.686;23.300;2023-05-10T08:05:23;95005.00;;;23.25;31.23
43217;BME280;60511;42.686;23.300;2023-05-10T08:07:24;95014.34;;;23.28;31.23
43217;BME280;60511;42.686;23.300;2023-05-10T08:09:25;95006.25;;;23.28;31.06
43217;BME280;60511;42.686;23.300;2023-05-10T08:11:25;95012.09;;;23.30;31.10
43217;BME280;60511;42.686;23.300;2023-05-10T08:13:27;95007.47;;;23.31;31.17
43217;BME280;60511;42.686;23.300;2023-05-10T08:15:28;94997.13;;;23.20;30.80
43217;BME280;60511;42.686;23.300;2023-05-10T08:17:28;94991.28;;;23.18;30.72
43217;BME280;60511;42.686;23.300;2023-05-10T08:19:28;95011.63;;;23.28;30.97
43217;BME280;60511;42.686;23.300;2023-05-10T08:21:30;95003.25;;;23.17;30.64
43217;BME280;60511;42.686;23.300;2023-05-10T08:23:31;94998.81;;;23.25;30.58
43217;BME280;60511;42.686;23.300;2023-05-10T08:25:32;94989.81;;;23.21;30.92
43217;BME280;60511;42.686;23.300;2023-05-10T08:27:32;94983.44;;;23.13;30.60
43217;BME280;60511;42.686;23.300;2023-05-10T08:29:32;94985.16;;;23.05;30.83
43217;BME280;60511;42.686;23.300;2023-05-10T08:31:33;95017.03;;;23.28;30.75
43217;BME280;60511;42.686;23.300;2023-05-10T08:33:33;95019.28;;;23.26;30.87
43217;BME280;60511;42.686;23.300;2023-05-10T08:35:34;95006.00;;;23.21;30.47
43217;BME280;60511;42.686;23.300;2023-05-10T08:37:35;95016.72;;;23.30;30.37
43217;BME280;60511;42.686;23.300;2023-05-10T08:39:36;94995.13;;;23.17;30.71
43217;BME280;60511;42.686;23.300;2023-05-10T08:41:39;95021.66;;;23.27;30.66
43217;BME280;60511;42.686;23.300;2023-05-10T08:43:40;94991.53;;;23.13;30.42
43217;BME280;60511;42.686;23.300;2023-05-10T08:45:46;95005.25;;;23.20;30.27
43217;BME280;60511;42.686;23.300;2023-05-10T08:47:47;95011.34;;;23.17;30.30
43217;BME280;60511;42.686;23.300;2023-05-10T08:49:48;94863.63;;;22.24;30.42
43217;BME280;60511;42.686;23.300;2023-05-10T08:51:51;95019.28;;;23.26;30.47
43217;BME280;60511;42.686;23.300;2023-05-10T08:53:52;94924.78;;;22.73;30.16
43217;BME280;60511;42.686;23.300;2023-05-10T08:55:53;95005.94;;;23.17;30.35
43217;BME280;60511;42.686;23.300;2023-05-10T08:57:53;95003.69;;;23.19;30.41
43217;BME280;60511;42.686;23.300;2023-05-10T08:59:54;94937.06;;;22.71;30.64
43217;BME280;60511;42.686;23.300;2023-05-10T09:01:57;95014.69;;;23.26;30.12
43217;BME280;60511;42.686;23.300;2023-05-10T09:03:57;95013.44;;;23.24;30.54
43217;BME280;60511;42.686;23.300;2023-05-10T09:05:58;95018.59;;;23.29;30.37
43217;BME280;60511;42.686;23.300;2023-05-10T09:07:58;95012.00;;;23.14;30.23
43217;BME280;60511;42.686;23.300;2023-05-10T09:10:00;94999.88;;;23.08;30.26
43217;BME280;60511;42.686;23.300;2023-05-10T09:12:01;94992.47;;;23.05;30.35
43217;BME280;60511;42.686;23.300;2023-05-10T09:14:01;94990.09;;;23.03;30.24
43217;BME280;60511;42.686;23.300;2023-05-10T09:16:03;95018.06;;;23.23;30.46
43217;BME280;60511;42.686;23.300;2023-05-10T09:18:04;94996.28;;;23.04;30.44
43217;BME280;60511;42.686;23.300;2023-05-10T09:20:05;95004.03;;;23.05;30.37
43217;BME280;60511;42.686;23.300;2023-05-10T09:22:06;95023.81;;;23.22;30.21
43217;BME280;60511;42.686;23.300;2023-05-10T09:24:07;94993.69;;;23.08;30.55
43217;BME280;60511;42.686;23.300;2023-05-10T09:26:08;95016.47;;;23.22;30.17
43217;BME280;60511;42.686;23.300;2023-05-10T09:28:09;94995.69;;;23.11;30.15
43217;BME280;60511;42.686;23.300;2023-05-10T09:30:09;94995.69;;;23.11;30.32
43217;BME280;60511;42.686;23.300;2023-05-10T09:32:10;94985.16;;;23.05;30.07
43217;BME280;60511;42.686;23.300;2023-05-10T09:34:11;94977.16;;;22.97;30.17
43217;BME280;60511;42.686;23.300;2023-05-10T09:36:11;94996.59;;;23.15;30.26
43217;BME280;60511;42.686;23.300;2023-05-10T09:38:12;95020.78;;;23.23;30.23
43217;BME280;60511;42.686;23.300;2023-05-10T09:40:16;94985.25;;;23.09;30.15
43217;BME280;60511;42.686;23.300;2023-05-10T09:42:18;94989.97;;;23.12;30.06
43217;BME280;60511;42.686;23.300;2023-05-10T09:44:18;94980.84;;;23.04;30.40
43217;BME280;60511;42.686;23.300;2023-05-10T09:46:19;95005.34;;;23.24;30.30
43217;BME280;60511;42.686;23.300;2023-05-10T09:48:23;94986.47;;;23.12;30.28
43217;BME280;60511;42.686;23.300;2023-05-10T09:50:24;94999.41;;;23.18;30.04
43217;BME280;60511;42.686;23.300;2023-05-10T09:52:25;94988.19;;;23.04;30.31
43217;BME280;60511;42.686;23.300;2023-05-10T09:54:25;94979.31;;;23.03;30.02
43217;BME280;60511;42.686;23.300;2023-05-10T09:56:38;95006.13;;;23.24;30.22
43217;BME280;60511;42.686;23.300;2023-05-10T09:58:40;94970.06;;;23.04;30.04
43217;BME280;60511;42.686;23.300;2023-05-10T10:00:42;94887.19;;;22.52;30.24
43217;BME280;60511;42.686;23.300;2023-05-10T10:02:45;94923.69;;;22.74;30.04
43217;BME280;60511;42.686;23.300;2023-05-10T10:04:48;94974.53;;;23.13;30.10
43217;BME280;60511;42.686;23.300;2023-05-10T10:06:59;94988.38;;;23.23;29.98
43217;BME280;60511;42.686;23.300;2023-05-10T10:09:00;94974.31;;;23.18;30.09
43217;BME280;60511;42.686;23.300;2023-05-10T10:11:00;94988.38;;;23.23;29.99
43217;BME280;60511;42.686;23.300;2023-05-10T10:13:02;94965.09;;;23.06;30.20
43217;BME280;60511;42.686;23.300;2023-05-10T10:15:03;94981.50;;;23.26;29.87
43217;BME280;60511;42.686;23.300;2023-05-10T10:17:06;94979.13;;;23.24;29.87
43217;BME280;60511;42.686;23.300;2023-05-10T10:19:07;94943.88;;;23.05;30.02
43217;BME280;60511;42.686;23.300;2023-05-10T10:21:07;94956.34;;;23.10;29.92
43217;BME280;60511;42.686;23.300;2023-05-10T10:23:08;94953.19;;;23.08;29.91
43217;BME280;60511;42.686;23.300;2023-05-10T10:25:16;94968.56;;;23.19;29.94
43217;BME280;60511;42.686;23.300;2023-05-10T10:32:30;94967.09;;;23.22;30.27
43217;BME280;60511;42.686;23.300;2023-05-10T10:34:36;94950.50;;;23.08;30.15
43217;BME280;60511;42.686;23.300;2023-05-10T10:36:45;94948.03;;;23.02;30.16
43217;BME280;60511;42.686;23.300;2023-05-10T10:40:47;94969.47;;;23.23;29.89
43217;BME280;60511;42.686;23.300;2023-05-10T10:42:47;94970.56;;;23.22;29.82
43217;BME280;60511;42.686;23.300;2023-05-10T10:45:12;94981.59;;;23.30;29.93
43217;BME280;60511;42.686;23.300;2023-05-10T10:49:23;94941.38;;;23.00;30.01
43217;BME280;60511;42.686;23.300;2023-05-10T10:51:23;94978.44;;;23.27;30.18
43217;BME280;60511;42.686;23.300;2023-05-10T10:53:26;94900.50;;;22.73;30.00
43217;BME280;60511;42.686;23.300;2023-05-10T10:55:28;94991.84;;;23.24;30.02
43217;BME280;60511;42.686;23.300;2023-05-10T10:57:43;94980.59;;;23.22;29.74
43217;BME280;60511;42.686;23.300;2023-05-10T10:59:44;94974.50;;;23.25;29.93
43217;BME280;60511;42.686;23.300;2023-05-10T11:01:44;94977.19;;;23.25;29.80
43217;BME280;60511;42.686;23.300;2023-05-10T11:06:00;94975.31;;;23.25;29.89